sensor_id;sensor_type;location;lat;lon;timestamp;pressure;altitude;pressure_sealevel;temperature;humidity
64453;BME280;50813;52.654;6.766;2023-05-23T00:00:59;101581.0;;;16.04;100.0
64453;BME280;50813;52.654;6.766;2023-05-23T00:02:35;101584.0;;;15.97;100.0
64453;BME280;50813;52.654;6.766;2023-05-23T00:04:11;101581.0;;;15.85;100.0
64453;BME280;50813;52.654;6.766;2023-05-23T00:07:24;101576.0;;;15.88;100.0
64453;BME280;50813;52.654;6.766;2023-05-23T00:09:00;101575.0;;;15.98;100.0
64453;BME280;50813;52.654;6.766;2023-05-23T00:10:37;101577.0;;;15.9;100.0
64453;BME280;50813;52.654;6.766;2023-05-23T00:13:49;101585.0;;;15.92;100.0
64453;BME280;50813;52.654;6.766;2023-05-23T00:15:26;101585.0;;;15.84;100.0
64453;BME280;50813;52.654;6.766;2023-05-23T00:17:02;101580.0;;;15.72;100.0
64453;BME280;50813;52.654;6.766;2023-05-23T00:20:17;101577.0;;;15.65;100.0
64453;BME280;50813;52.654;6.766;2023-05-23T00:21:54;101571.0;;;15.62;100.0
64453;BME280;50813;52.654;6.766;2023-05-23T00:23:30;101575.0;;;15.57;100.0
64453;BME280;50813;52.654;6.766;2023-05-23T00:25:07;101575.0;;;15.43;100.0
64453;BME280;50813;52.654;6.766;2023-05-23T00:28:19;101582.0;;;15.57;100.0
64453;BME280;50813;52.654;6.766;2023-05-23T00:29:55;101581.0;;;15.38;100.0
64453;BME280;50813;52.654;6.766;2023-05-23T00:31:32;101586.0;;;15.44;100.0
64453;BME280;50813;52.654;6.766;2023-05-23T00:34:44;101583.0;;;15.52;100.0
64453;BME280;50813;52.654;6.766;2023-05-23T00:36:20;101588.0;;;15.48;100.0
64453;BME280;50813;52.654;6.766;2023-05-23T00:37:56;101581.0;;;15.55;100.0
64453;BME280;50813;52.654;6.766;2023-05-23T00:41:09;101586.0;;;15.32;100.0
64453;BME280;50813;52.654;6.766;2023-05-23T00:42:46;101584.0;;;15.36;100.0
64453;BME280;50813;52.654;6.766;2023-05-23T00:44:22;101589.0;;;15.49;100.0
64453;BME280;50813;52.654;6.766;2023-05-23T00:45:59;101585.0;;;15.42;100.0
64453;BME280;50813;52.654;6.766;2023-05-23T00:49:12;101584.0;;;15.41;100.0
64453;BME280;50813;52.654;6.766;2023-05-23T00:50:49;101587.0;;;15.54;100.0
64453;BME280;50813;52.654;6.766;2023-05-23T00:52:25;101588.0;;;15.55;100.0
64453;BME280;50813;52.654;6.766;2023-05-23T00:55:39;101585.0;;;15.57;100.0
64453;BME280;50813;52.654;6.766;2023-05-23T00:57:16;101589.0;;;15.5;100.0
64453;BME280;50813;52.654;6.766;2023-05-23T00:58:53;101586.0;;;15.47;100.0
64453;BME280;50813;52.654;6.766;2023-05-23T01:02:05;101589.0;;;15.37;100.0
64453;BME280;50813;52.654;6.766;2023-05-23T01:03:41;101593.0;;;15.39;100.0
64453;BME280;50813;52.654;6.766;2023-05-23T01:05:18;101599.0;;;15.17;100.0
64453;BME280;50813;52.654;6.766;2023-05-23T01:06:56;101600.0;;;15.2;100.0
64453;BME280;50813;52.654;6.766;2023-05-23T01:10:09;101592.0;;;15.08;100.0
64453;BME280;50813;52.654;6.766;2023-05-23T01:11:52;101596.0;;;15.1;100.0
64453;BME280;50813;52.654;6.766;2023-05-23T01:13:40;101596.0;;;15.11;100.0
64453;BME280;50813;52.654;6.766;2023-05-23T01:15:19;101596.0;;;15.06;100.0
64453;BME280;50813;52.654;6.766;2023-05-23T01:18:47;101599.0;;;15.04;100.0
64453;BME280;50813;52.654;6.766;2023-05-23T01:20:31;101598.0;;;15.09;100.0
64453;BME280;50813;52.654;6.766;2023-05-23T01:22:15;101597.0;;;15.09;100.0
64453;BME280;50813;52.654;6.766;2023-05-23T01:24:47;101608.0;;;15.06;100.0
64453;BME280;50813;52.654;6.766;2023-05-23T01:26:32;101608.0;;;14.98;100.0
64453;BME280;50813;52.654;6.766;2023-05-23T01:28:16;101605.0;;;15.07;100.0
64453;BME280;50813;52.654;6.766;2023-05-23T01:29:56;101609.0;;;15.17;100.0
64453;BME280;50813;52.654;6.766;2023-05-23T01:33:13;101607.0;;;14.94;100.0
64453;BME280;50813;52.654;6.766;2023-05-23T01:34:52;101613.0;;;14.86;100.0
64453;BME280;50813;52.654;6.766;2023-05-23T01:36:28;101613.0;;;14.86;100.0
64453;BME280;50813;52.654;6.766;2023-05-23T01:39:41;101615.0;;;15.04;100.0
64453;BME280;50813;52.654;6.766;2023-05-23T01:41:16;101622.0;;;14.93;100.0
64453;BME280;50813;52.654;6.766;2023-05-23T01:42:54;101621.0;;;14.8;100.0
64453;BME280;50813;52.654;6.766;2023-05-23T01:44:31;101622.0;;;14.85;100.0
64453;BME280;50813;52.654;6.766;2023-05-23T01:47:48;101623.0;;;14.74;100.0
64453;BME280;50813;52.654;6.766;2023-05-23T01:49:26;101626.0;;;14.84;100.0
64453;BME280;50813;52.654;6.766;2023-05-23T01:51:03;101624.0;;;14.77;100.0
64453;BME280;50813;52.654;6.766;2023-05-23T01:54:16;101627.0;;;14.91;100.0
64453;BME280;50813;52.654;6.766;2023-05-23T01:55:53;101625.0;;;14.77;100.0
64453;BME280;50813;52.654;6.766;2023-05-23T01:57:32;101631.0;;;14.69;100.0
64453;BME280;50813;52.654;6.766;2023-05-23T01:59:08;101632.0;;;14.62;100.0
64453;BME280;50813;52.654;6.766;2023-05-23T02:02:21;101633.0;;;14.54;100.0
64453;BME280;50813;52.654;6.766;2023-05-23T02:03:57;101640.0;;;14.77;100.0
64453;BME280;50813;52.654;6.766;2023-05-23T02:05:33;101631.0;;;14.7;100.0
64453;BME280;50813;52.654;6.766;2023-05-23T02:08:45;101635.0;;;14.84;100.0
64453;BME280;50813;52.654;6.766;2023-05-23T02:10:22;101639.0;;;14.88;100.0
64453;BME280;50813;52.654;6.766;2023-05-23T02:11:58;101642.0;;;14.74;100.0
64453;BME280;50813;52.654;6.766;2023-05-23T02:15:10;101651.0;;;14.59;100.0
64453;BME280;50813;52.654;6.766;2023-05-23T02:16:46;101649.0;;;14.54;100.0
64453;BME280;50813;52.654;6.766;2023-05-23T02:18:23;101652.0;;;14.54;100.0
64453;BME280;50813;52.654;6.766;2023-05-23T02:21:35;101651.0;;;14.51;100.0
64453;BME280;50813;52.654;6.766;2023-05-23T02:23:12;101643.0;;;14.44;100.0
64453;BME280;50813;52.654;6.766;2023-05-23T02:24:49;101652.0;;;14.34;100.0
64453;BME280;50813;52.654;6.766;2023-05-23T02:26:24;101655.0;;;14.51;100.0
64453;BME280;50813;52.654;6.766;2023-05-23T02:29:37;101659.0;;;14.38;100.0
64453;BME280;50813;52.654;6.766;2023-05-23T02:31:13;101655.0;;;14.44;100.0
64453;BME280;50813;52.654;6.766;2023-05-23T02:32:49;101657.0;;;14.56;100.0
64453;BME280;50813;52.654;6.766;2023-05-23T02:36:01;101661.0;;;14.47;100.0
64453;BME280;50813;52.654;6.766;2023-05-23T02:37:38;101666.0;;;14.64;100.0
64453;BME280;50813;52.654;6.766;2023-05-23T02:39:14;101663.0;;;14.51;100.0
64453;BME280;50813;52.654;6.766;2023-05-23T02:42:26;101663.0;;;14.56;100.0
64453;BME280;50813;52.654;6.766;2023-05-23T02:44:02;101671.0;;;14.48;100.0
64453;BME280;50813;52.654;6.766;2023-05-23T02:45:38;101671.0;;;14.53;100.0
64453;BME280;50813;52.654;6.766;2023-05-23T02:47:15;101674.0;;;14.35;100.0
64453;BME280;50813;52.654;6.766;2023-05-23T02:50:27;101681.0;;;14.55;100.0
64453;BME280;50813;52.654;6.766;2023-05-23T02:52:03;101684.0;;;14.62;100.0
64453;BME280;50813;52.654;6.766;2023-05-23T02:53:39;101684.0;;;14.68;100.0
64453;BME280;50813;52.654;6.766;2023-05-23T02:56:52;101683.0;;;14.42;100.0
64453;BME280;50813;52.654;6.766;2023-05-23T02:58:28;101689.0;;;14.5;100.0
64453;BME280;50813;52.654;6.766;2023-05-23T03:00:05;101691.0;;;14.26;100.0
64453;BME280;50813;52.654;6.766;2023-05-23T03:03:17;101688.0;;;14.21;100.0
64453;BME280;50813;52.654;6.766;2023-05-23T03:04:54;101693.0;;;14.16;100.0
64453;BME280;50813;52.654;6.766;2023-05-23T03:06:30;101697.0;;;14.04;100.0
64453;BME280;50813;52.654;6.766;2023-05-23T03:09:42;101699.0;;;13.91;100.0
64453;BME280;50813;52.654;6.766;2023-05-23T03:11:18;101703.0;;;14.09;100.0
64453;BME280;50813;52.654;6.766;2023-05-23T03:12:54;101705.0;;;13.95;100.0
64453;BME280;50813;52.654;6.766;2023-05-23T03:14:31;101705.0;;;13.93;100.0
64453;BME280;50813;52.654;6.766;2023-05-23T03:17:43;101709.0;;;13.87;100.0
64453;BME280;50813;52.654;6.766;2023-05-23T03:19:19;101712.0;;;13.96;100.0
64453;BME280;50813;52.654;6.766;2023-05-23T03:24:08;101706.0;;;13.94;100.0
64453;BME280;50813;52.654;6.766;2023-05-23T03:25:44;101709.0;;;13.87;100.0
64453;BME280;50813;52.654;6.766;2023-05-23T03:27:20;101709.0;;;13.82;100.0
64453;BME280;50813;52.654;6.766;2023-05-23T03:30:33;101711.0;;;13.8;100.0
64453;BME280;50813;52.654;6.766;2023-05-23T03:32:09;101707.0;;;13.71;100.0
64453;BME280;50813;52.654;6.766;2023-05-23T03:33:45;101708.0;;;13.81;100.0
64453;BME280;50813;52.654;6.766;2023-05-23T03:35:21;101710.0;;;13.8;100.0
64453;BME280;50813;52.654;6.766;2023-05-23T03:38:33;101710.0;;;13.66;100.0
64453;BME280;50813;52.654;6.766;2023-05-23T03:40:10;101711.0;;;13.78;100.0
64453;BME280;50813;52.654;6.766;2023-05-23T03:41:46;101712.0;;;13.79;100.0
64453;BME280;50813;52.654;6.766;2023-05-23T03:44:58;101715.0;;;13.89;100.0
64453;BME280;50813;52.654;6.766;2023-05-23T03:46:34;101715.0;;;13.88;100.0
64453;BME280;50813;52.654;6.766;2023-05-23T03:48:10;101715.0;;;13.71;100.0
64453;BME280;50813;52.654;6.766;2023-05-23T03:51:23;101715.0;;;13.55;100.0
64453;BME280;50813;52.654;6.766;2023-05-23T03:52:59;101717.0;;;13.63;100.0
64453;BME280;50813;52.654;6.766;2023-05-23T03:54:35;101720.0;;;13.49;100.0
64453;BME280;50813;52.654;6.766;2023-05-23T03:57:48;101730.0;;;13.44;100.0
64453;BME280;50813;52.654;6.766;2023-05-23T03:59:24;101732.0;;;13.38;100.0
64453;BME280;50813;52.654;6.766;2023-05-23T04:01:00;101727.0;;;13.32;100.0
64453;BME280;50813;52.654;6.766;2023-05-23T04:02:36;101732.0;;;13.26;100.0
64453;BME280;50813;52.654;6.766;2023-05-23T04:05:48;101741.0;;;13.44;100.0
64453;BME280;50813;52.654;6.766;2023-05-23T04:07:25;101749.0;;;13.48;100.0
64453;BME280;50813;52.654;6.766;2023-05-23T04:09:01;101746.0;;;13.47;100.0
64453;BME280;50813;52.654;6.766;2023-05-23T04:12:13;101743.0;;;13.44;100.0
64453;BME280;50813;52.654;6.766;2023-05-23T04:13:49;101748.0;;;13.35;100.0
64453;BME280;50813;52.654;6.766;2023-05-23T04:15:26;101756.0;;;13.46;100.0
64453;BME280;50813;52.654;6.766;2023-05-23T04:18:38;101750.0;;;13.38;100.0
64453;BME280;50813;52.654;6.766;2023-05-23T04:20:14;101757.0;;;13.41;100.0
64453;BME280;50813;52.654;6.766;2023-05-23T04:21:50;101758.0;;;13.4;100.0
64453;BME280;50813;52.654;6.766;2023-05-23T04:25:03;101757.0;;;13.27;100.0
64453;BME280;50813;52.654;6.766;2023-05-23T04:26:41;101759.0;;;13.3;100.0
64453;BME280;50813;52.654;6.766;2023-05-23T04:28:17;101763.0;;;13.28;100.0
64453;BME280;50813;52.654;6.766;2023-05-23T04:29:53;101762.0;;;13.24;100.0
64453;BME280;50813;52.654;6.766;2023-05-23T04:33:05;101769.0;;;13.26;100.0
64453;BME280;50813;52.654;6.766;2023-05-23T04:34:42;101765.0;;;13.41;100.0
64453;BME280;50813;52.654;6.766;2023-05-23T04:36:18;101773.0;;;13.24;100.0
64453;BME280;50813;52.654;6.766;2023-05-23T04:39:30;101772.0;;;13.22;100.0
64453;BME280;50813;52.654;6.766;2023-05-23T04:41:07;101775.0;;;13.16;100.0
64453;BME280;50813;52.654;6.766;2023-05-23T04:42:43;101776.0;;;13.29;100.0
64453;BME280;50813;52.654;6.766;2023-05-23T04:45:55;101781.0;;;13.21;100.0
64453;BME280;50813;52.654;6.766;2023-05-23T04:47:31;101795.0;;;13.19;100.0
64453;BME280;50813;52.654;6.766;2023-05-23T04:49:08;101790.0;;;13.17;100.0
64453;BME280;50813;52.654;6.766;2023-05-23T04:50:44;101792.0;;;13.35;100.0
64453;BME280;50813;52.654;6.766;2023-05-23T04:53:57;101787.0;;;13.32;100.0
64453;BME280;50813;52.654;6.766;2023-05-23T04:55:33;101791.0;;;13.36;100.0
64453;BME280;50813;52.654;6.766;2023-05-23T04:57:09;101796.0;;;13.19;100.0
64453;BME280;50813;52.654;6.766;2023-05-23T05:00:22;101794.0;;;13.06;100.0
64453;BME280;50813;52.654;6.766;2023-05-23T05:01:58;101802.0;;;13.13;100.0
64453;BME280;50813;52.654;6.766;2023-05-23T05:03:34;101806.0;;;13.19;100.0
64453;BME280;50813;52.654;6.766;2023-05-23T05:06:46;101805.0;;;13.02;100.0
64453;BME280;50813;52.654;6.766;2023-05-23T05:08:23;101812.0;;;13.06;100.0
64453;BME280;50813;52.654;6.766;2023-05-23T05:09:59;101817.0;;;12.95;100.0
64453;BME280;50813;52.654;6.766;2023-05-23T05:11:35;101827.0;;;13.06;100.0
64453;BME280;50813;52.654;6.766;2023-05-23T05:14:48;101830.0;;;13.11;100.0
64453;BME280;50813;52.654;6.766;2023-05-23T05:16:23;101833.0;;;13.13;100.0
64453;BME280;50813;52.654;6.766;2023-05-23T05:18:00;101833.0;;;13.06;100.0
64453;BME280;50813;52.654;6.766;2023-05-23T05:21:12;101843.0;;;13.12;100.0
64453;BME280;50813;52.654;6.766;2023-05-23T05:22:54;101836.0;;;12.86;100.0
64453;BME280;50813;52.654;6.766;2023-05-23T05:24:30;101841.0;;;12.96;100.0
64453;BME280;50813;52.654;6.766;2023-05-23T05:27:43;101839.0;;;12.96;100.0
64453;BME280;50813;52.654;6.766;2023-05-23T05:29:19;101850.0;;;13.0;100.0
64453;BME280;50813;52.654;6.766;2023-05-23T05:30:55;101849.0;;;13.02;100.0
64453;BME280;50813;52.654;6.766;2023-05-23T05:32:31;101846.0;;;12.95;100.0
64453;BME280;50813;52.654;6.766;2023-05-23T05:35:44;101850.0;;;12.81;100.0
64453;BME280;50813;52.654;6.766;2023-05-23T05:37:20;101855.0;;;12.98;100.0
64453;BME280;50813;52.654;6.766;2023-05-23T05:38:56;101857.0;;;12.98;100.0
64453;BME280;50813;52.654;6.766;2023-05-23T05:42:09;101858.0;;;12.98;100.0
64453;BME280;50813;52.654;6.766;2023-05-23T05:43:46;101855.0;;;13.0;100.0
64453;BME280;50813;52.654;6.766;2023-05-23T05:45:22;101860.0;;;13.03;100.0
64453;BME280;50813;52.654;6.766;2023-05-23T05:48:34;101863.0;;;12.8;100.0
64453;BME280;50813;52.654;6.766;2023-05-23T05:50:10;101871.0;;;12.97;100.0
64453;BME280;50813;52.654;6.766;2023-05-23T05:51:47;101877.0;;;12.85;100.0
64453;BME280;50813;52.654;6.766;2023-05-23T05:54:59;101880.0;;;12.83;100.0
64453;BME280;50813;52.654;6.766;2023-05-23T05:56:35;101881.0;;;12.78;100.0
64453;BME280;50813;52.654;6.766;2023-05-23T05:58:11;101887.0;;;12.83;100.0
64453;BME280;50813;52.654;6.766;2023-05-23T05:59:47;101887.0;;;12.85;100.0
64453;BME280;50813;52.654;6.766;2023-05-23T06:03:00;101885.0;;;12.86;100.0
64453;BME280;50813;52.654;6.766;2023-05-23T06:04:36;101892.0;;;12.83;100.0
64453;BME280;50813;52.654;6.766;2023-05-23T06:06:12;101893.0;;;12.88;100.0
64453;BME280;50813;52.654;6.766;2023-05-23T06:09:24;101896.0;;;12.88;100.0
64453;BME280;50813;52.654;6.766;2023-05-23T06:11:01;101897.0;;;12.89;100.0
64453;BME280;50813;52.654;6.766;2023-05-23T06:12:37;101905.0;;;12.95;100.0
64453;BME280;50813;52.654;6.766;2023-05-23T06:15:49;101908.0;;;12.77;100.0
64453;BME280;50813;52.654;6.766;2023-05-23T06:17:26;101917.0;;;12.7;100.0
64453;BME280;50813;52.654;6.766;2023-05-23T06:19:03;101920.0;;;12.66;100.0
64453;BME280;50813;52.654;6.766;2023-05-23T06:20:39;101922.0;;;12.61;100.0
64453;BME280;50813;52.654;6.766;2023-05-23T06:23:51;101930.0;;;12.68;100.0
64453;BME280;50813;52.654;6.766;2023-05-23T06:25:27;101938.0;;;12.7;100.0
64453;BME280;50813;52.654;6.766;2023-05-23T06:27:04;101930.0;;;12.43;100.0
64453;BME280;50813;52.654;6.766;2023-05-23T06:30:16;101936.0;;;12.25;100.0
64453;BME280;50813;52.654;6.766;2023-05-23T06:31:52;101937.0;;;12.27;100.0
64453;BME280;50813;52.654;6.766;2023-05-23T06:33:29;101937.0;;;12.19;100.0
64453;BME280;50813;52.654;6.766;2023-05-23T06:36:43;101941.0;;;12.2;100.0
64453;BME280;50813;52.654;6.766;2023-05-23T06:38:19;101946.0;;;12.2;100.0
64453;BME280;50813;52.654;6.766;2023-05-23T06:39:55;101928.0;;;12.07;100.0
64453;BME280;50813;52.654;6.766;2023-05-23T06:43:07;101947.0;;;12.12;100.0
64453;BME280;50813;52.654;6.766;2023-05-23T06:44:44;101950.0;;;12.13;100.0
64453;BME280;50813;52.654;6.766;2023-05-23T06:46:20;101951.0;;;12.0;100.0
64453;BME280;50813;52.654;6.766;2023-05-23T06:47:56;101956.0;;;12.2;100.0
64453;BME280;50813;52.654;6.766;2023-05-23T06:51:08;101951.0;;;12.46;100.0
64453;BME280;50813;52.654;6.766;2023-05-23T06:52:45;101959.0;;;12.32;100.0
64453;BME280;50813;52.654;6.766;2023-05-23T06:54:21;101953.0;;;12.25;100.0
64453;BME280;50813;52.654;6.766;2023-05-23T06:57:33;101956.0;;;12.21;100.0
64453;BME280;50813;52.654;6.766;2023-05-23T06:59:09;101963.0;;;12.28;100.0
64453;BME280;50813;52.654;6.766;2023-05-23T07:00:46;101966.0;;;12.27;100.0
64453;BME280;50813;52.654;6.766;2023-05-23T07:03:58;101967.0;;;12.09;100.0
64453;BME280;50813;52.654;6.766;2023-05-23T07:05:33;101981.0;;;12.29;100.0
64453;BME280;50813;52.654;6.766;2023-05-23T07:07:09;101974.0;;;12.11;100.0
64453;BME280;50813;52.654;6.766;2023-05-23T07:08:46;101989.0;;;12.21;100.0
64453;BME280;50813;52.654;6.766;2023-05-23T07:11:58;101992.0;;;12.15;100.0
64453;BME280;50813;52.654;6.766;2023-05-23T07:13:34;101993.0;;;12.28;100.0
64453;BME280;50813;52.654;6.766;2023-05-23T07:15:10;101988.0;;;12.21;100.0
64453;BME280;50813;52.654;6.766;2023-05-23T07:18:23;101993.0;;;12.35;100.0
64453;BME280;50813;52.654;6.766;2023-05-23T07:20:00;101989.0;;;12.4;98.59
64453;BME280;50813;52.654;6.766;2023-05-23T07:21:36;101990.0;;;12.25;98.03
64453;BME280;50813;52.654;6.766;2023-05-23T07:24:48;101991.0;;;12.2;96.75
64453;BME280;50813;52.654;6.766;2023-05-23T07:26:25;101991.0;;;12.17;96.73
64453;BME280;50813;52.654;6.766;2023-05-23T07:28:01;101989.0;;;12.31;97.72
64453;BME280;50813;52.654;6.766;2023-05-23T07:31:13;102000.0;;;12.39;94.96
64453;BME280;50813;52.654;6.766;2023-05-23T07:32:49;102007.0;;;12.48;95.7
64453;BME280;50813;52.654;6.766;2023-05-23T07:34:26;102001.0;;;12.68;93.66
64453;BME280;50813;52.654;6.766;2023-05-23T07:36:02;102011.0;;;12.7;92.56
64453;BME280;50813;52.654;6.766;2023-05-23T07:39:14;102013.0;;;12.67;91.75
64453;BME280;50813;52.654;6.766;2023-05-23T07:40:50;102018.0;;;12.59;92.79
64453;BME280;50813;52.654;6.766;2023-05-23T07:42:27;102011.0;;;12.44;93.08
64453;BME280;50813;52.654;6.766;2023-05-23T07:45:39;102012.0;;;12.51;91.1
64453;BME280;50813;52.654;6.766;2023-05-23T07:47:15;102013.0;;;12.4;90.92
64453;BME280;50813;52.654;6.766;2023-05-23T07:48:51;102021.0;;;12.65;90.96
64453;BME280;50813;52.654;6.766;2023-05-23T07:52:04;102027.0;;;12.6;89.83
64453;BME280;50813;52.654;6.766;2023-05-23T07:53:40;102024.0;;;12.79;90.25
64453;BME280;50813;52.654;6.766;2023-05-23T07:55:16;102020.0;;;12.94;87.73
64453;BME280;50813;52.654;6.766;2023-05-23T07:56:52;102024.0;;;13.08;85.9
64453;BME280;50813;52.654;6.766;2023-05-23T08:00:06;102020.0;;;13.21;87.25
64453;BME280;50813;52.654;6.766;2023-05-23T08:01:42;102030.0;;;13.16;84.13
64453;BME280;50813;52.654;6.766;2023-05-23T08:03:18;102035.0;;;13.14;85.26
64453;BME280;50813;52.654;6.766;2023-05-23T08:06:30;102033.0;;;13.27;85.0
64453;BME280;50813;52.654;6.766;2023-05-23T08:08:07;102033.0;;;13.2;82.64
64453;BME280;50813;52.654;6.766;2023-05-23T08:09:43;102035.0;;;13.31;82.46
64453;BME280;50813;52.654;6.766;2023-05-23T08:12:55;102034.0;;;13.3;81.28
64453;BME280;50813;52.654;6.766;2023-05-23T08:14:31;102039.0;;;13.38;81.98
64453;BME280;50813;52.654;6.766;2023-05-23T08:16:07;102040.0;;;13.28;81.49
64453;BME280;50813;52.654;6.766;2023-05-23T08:19:20;102046.0;;;13.18;81.72
64453;BME280;50813;52.654;6.766;2023-05-23T08:20:56;102050.0;;;13.04;81.72
64453;BME280;50813;52.654;6.766;2023-05-23T08:22:32;102056.0;;;13.04;82.05
64453;BME280;50813;52.654;6.766;2023-05-23T08:24:08;102058.0;;;13.07;83.17
64453;BME280;50813;52.654;6.766;2023-05-23T08:27:21;102059.0;;;13.2;82.22
64453;BME280;50813;52.654;6.766;2023-05-23T08:28:57;102072.0;;;13.2;81.66
64453;BME280;50813;52.654;6.766;2023-05-23T08:30:33;102068.0;;;13.21;82.9
64453;BME280;50813;52.654;6.766;2023-05-23T08:33:46;102073.0;;;13.34;81.13
64453;BME280;50813;52.654;6.766;2023-05-23T08:35:22;102071.0;;;13.5;81.8
64453;BME280;50813;52.654;6.766;2023-05-23T08:36:58;102080.0;;;13.42;80.02
64453;BME280;50813;52.654;6.766;2023-05-23T08:40:13;102074.0;;;13.36;78.69
64453;BME280;50813;52.654;6.766;2023-05-23T08:41:52;102082.0;;;13.35;80.24
64453;BME280;50813;52.654;6.766;2023-05-23T08:43:29;102080.0;;;13.4;78.19
64453;BME280;50813;52.654;6.766;2023-05-23T08:45:06;102077.0;;;13.35;78.7
64453;BME280;50813;52.654;6.766;2023-05-23T08:48:21;102087.0;;;13.64;79.55
64453;BME280;50813;52.654;6.766;2023-05-23T08:50:00;102084.0;;;13.6;77.83
64453;BME280;50813;52.654;6.766;2023-05-23T08:51:37;102088.0;;;13.75;78.52
64453;BME280;50813;52.654;6.766;2023-05-23T08:54:59;102083.0;;;13.66;76.59
64453;BME280;50813;52.654;6.766;2023-05-23T08:56:36;102080.0;;;13.73;77.64
64453;BME280;50813;52.654;6.766;2023-05-23T08:58:13;102081.0;;;13.9;77.36
64453;BME280;50813;52.654;6.766;2023-05-23T08:59:50;102083.0;;;13.82;76.8
64453;BME280;50813;52.654;6.766;2023-05-23T09:03:05;102086.0;;;13.57;76.84
64453;BME280;50813;52.654;6.766;2023-05-23T09:04:41;102092.0;;;13.52;76.52
64453;BME280;50813;52.654;6.766;2023-05-23T09:06:19;102098.0;;;13.77;75.8
64453;BME280;50813;52.654;6.766;2023-05-23T09:09:32;102092.0;;;13.72;75.44
64453;BME280;50813;52.654;6.766;2023-05-23T09:11:08;102095.0;;;13.7;74.39
64453;BME280;50813;52.654;6.766;2023-05-23T09:12:44;102094.0;;;13.77;74.75
64453;BME280;50813;52.654;6.766;2023-05-23T09:14:20;102095.0;;;13.72;74.89
64453;BME280;50813;52.654;6.766;2023-05-23T09:17:38;102091.0;;;13.99;74.06
64453;BME280;50813;52.654;6.766;2023-05-23T09:19:14;102087.0;;;14.34;72.69
64453;BME280;50813;52.654;6.766;2023-05-23T09:20:50;102087.0;;;14.54;70.72
64453;BME280;50813;52.654;6.766;2023-05-23T09:24:04;102083.0;;;14.8;72.99
64453;BME280;50813;52.654;6.766;2023-05-23T09:25:45;102092.0;;;14.79;69.23
64453;BME280;50813;52.654;6.766;2023-05-23T09:27:22;102093.0;;;14.64;69.34
64453;BME280;50813;52.654;6.766;2023-05-23T09:28:59;102095.0;;;14.66;70.27
64453;BME280;50813;52.654;6.766;2023-05-23T09:32:15;102099.0;;;14.81;71.58
64453;BME280;50813;52.654;6.766;2023-05-23T09:33:52;102098.0;;;14.82;70.49
64453;BME280;50813;52.654;6.766;2023-05-23T09:35:28;102098.0;;;14.87;69.83
64453;BME280;50813;52.654;6.766;2023-05-23T09:38:42;102098.0;;;14.52;69.45
64453;BME280;50813;52.654;6.766;2023-05-23T09:40:20;102092.0;;;14.72;69.64
64453;BME280;50813;52.654;6.766;2023-05-23T09:41:57;102091.0;;;14.84;68.59
64453;BME280;50813;52.654;6.766;2023-05-23T09:43:33;102092.0;;;14.88;67.05
64453;BME280;50813;52.654;6.766;2023-05-23T09:46:50;102094.0;;;14.9;68.37
64453;BME280;50813;52.654;6.766;2023-05-23T09:48:28;102094.0;;;15.23;68.41
64453;BME280;50813;52.654;6.766;2023-05-23T09:50:05;102097.0;;;15.37;67.45
64453;BME280;50813;52.654;6.766;2023-05-23T09:54:54;102099.0;;;15.75;61.62
64453;BME280;50813;52.654;6.766;2023-05-23T09:56:30;102103.0;;;15.67;61.03
64453;BME280;50813;52.654;6.766;2023-05-23T09:59:50;102103.0;;;15.95;61.68
64453;BME280;50813;52.654;6.766;2023-05-23T10:01:30;102100.0;;;16.02;63.92
64453;BME280;50813;52.654;6.766;2023-05-23T10:03:10;102106.0;;;16.36;64.86
64453;BME280;50813;52.654;6.766;2023-05-23T10:04:47;102094.0;;;16.34;61.79
64453;BME280;50813;52.654;6.766;2023-05-23T10:08:07;102100.0;;;16.56;62.17
64453;BME280;50813;52.654;6.766;2023-05-23T10:09:48;102102.0;;;16.52;59.47
64453;BME280;50813;52.654;6.766;2023-05-23T10:12:36;102111.0;;;16.2;62.97
64453;BME280;50813;52.654;6.766;2023-05-23T10:15:08;102114.0;;;15.74;62.26
64453;BME280;50813;52.654;6.766;2023-05-23T10:18:39;102113.0;;;15.62;61.27
64453;BME280;50813;52.654;6.766;2023-05-23T10:20:21;102113.0;;;15.42;63.09
64453;BME280;50813;52.654;6.766;2023-05-23T10:22:01;102122.0;;;15.78;62.84
64453;BME280;50813;52.654;6.766;2023-05-23T10:23:41;102115.0;;;15.94;60.54
64453;BME280;50813;52.654;6.766;2023-05-23T10:26:54;102115.0;;;15.79;62.83
64453;BME280;50813;52.654;6.766;2023-05-23T10:28:31;102120.0;;;15.52;61.27
64453;BME280;50813;52.654;6.766;2023-05-23T10:30:08;102120.0;;;15.66;61.8
64453;BME280;50813;52.654;6.766;2023-05-23T10:31:45;102122.0;;;15.63;60.61
64453;BME280;50813;52.654;6.766;2023-05-23T10:35:05;102131.0;;;15.78;61.81
64453;BME280;50813;52.654;6.766;2023-05-23T10:36:52;102132.0;;;15.77;61.11
64453;BME280;50813;52.654;6.766;2023-05-23T10:38:35;102130.0;;;16.13;60.93
64453;BME280;50813;52.654;6.766;2023-05-23T10:40:21;102128.0;;;16.52;61.77
64453;BME280;50813;52.654;6.766;2023-05-23T10:43:50;102124.0;;;16.84;58.68
64453;BME280;50813;52.654;6.766;2023-05-23T10:45:39;102119.0;;;17.0;56.88
64453;BME280;50813;52.654;6.766;2023-05-23T10:47:25;102131.0;;;16.5;57.36
64453;BME280;50813;52.654;6.766;2023-05-23T10:49:01;102136.0;;;16.34;59.47
64453;BME280;50813;52.654;6.766;2023-05-23T10:50:37;102140.0;;;16.4;57.85
64453;BME280;50813;52.654;6.766;2023-05-23T10:53:53;102136.0;;;16.45;56.05
64453;BME280;50813;52.654;6.766;2023-05-23T10:55:31;102132.0;;;16.68;57.03
64453;BME280;50813;52.654;6.766;2023-05-23T10:57:09;102131.0;;;16.7;56.02
64453;BME280;50813;52.654;6.766;2023-05-23T11:00:22;102134.0;;;16.68;57.08
64453;BME280;50813;52.654;6.766;2023-05-23T11:01:59;102140.0;;;16.32;57.18
64453;BME280;50813;52.654;6.766;2023-05-23T11:03:48;102139.0;;;16.25;58.6
64453;BME280;50813;52.654;6.766;2023-05-23T11:05:27;102144.0;;;16.38;57.81
64453;BME280;50813;52.654;6.766;2023-05-23T11:08:40;102142.0;;;15.79;57.57
64453;BME280;50813;52.654;6.766;2023-05-23T11:10:18;102140.0;;;15.91;58.31
64453;BME280;50813;52.654;6.766;2023-05-23T11:11:54;102142.0;;;16.31;56.76